createdAt,value
2019-06-07T00:01:32.827Z,6.08
2019-06-07T00:03:58.681Z,6.70
2019-06-07T00:06:25.903Z,6.97
2019-06-07T00:08:51.985Z,7.08
2019-06-07T00:11:20.370Z,6.83
2019-06-07T00:13:45.591Z,6.53
2019-06-07T00:16:14.174Z,7.30
2019-06-07T00:18:39.215Z,6.60
2019-06-07T00:21:04.973Z,8.58
2019-06-07T00:23:30.866Z,5.70
2019-06-07T00:25:56.750Z,6.80
2019-06-07T00:28:22.624Z,7.85
2019-06-07T00:30:52.044Z,6.28
2019-06-07T00:33:19.222Z,6.92
2019-06-07T00:35:44.014Z,6.28
2019-06-07T00:38:09.975Z,6.28
2019-06-07T00:40:35.793Z,6.30
2019-06-07T00:43:01.635Z,6.42
2019-06-07T00:45:27.512Z,6.47
2019-06-07T00:47:53.533Z,6.05
2019-06-07T00:50:23.534Z,5.97
2019-06-07T00:55:17.170Z,6.25
2019-06-07T00:57:42.971Z,6.50
2019-06-07T01:00:12.291Z,6.85
2019-06-07T01:02:38.689Z,6.08
2019-06-07T01:05:06.086Z,5.85
2019-06-07T01:07:31.938Z,6.30
2019-06-07T01:09:57.790Z,5.58
2019-06-07T01:12:26.297Z,7.33
2019-06-07T01:14:51.431Z,6.45
2019-06-07T01:17:39.674Z,5.40
2019-06-07T01:19:51.586Z,5.15
2019-06-07T01:22:18.431Z,4.92
2019-06-07T01:24:45.470Z,5.08
2019-06-07T01:27:11.298Z,5.58
2019-06-07T01:29:37.182Z,8.48
2019-06-07T01:32:03.131Z,4.40
2019-06-07T01:34:29.183Z,4.67
2019-06-07T01:36:55.150Z,4.37
2019-06-07T01:39:21.208Z,4.35
2019-06-07T01:41:48.771Z,4.42
2019-06-07T01:44:14.586Z,4.83
2019-06-07T01:46:40.418Z,5.35
2019-06-07T01:49:06.244Z,4.40
2019-06-07T01:51:32.112Z,4.62
2019-06-07T01:54:46.915Z,3.58
2019-06-07T01:56:28.277Z,3.98
2019-06-07T01:58:54.506Z,5.42
2019-06-07T02:01:21.668Z,8.53
2019-06-07T02:03:48.268Z,4.92
2019-06-07T02:06:14.235Z,3.80
2019-06-07T02:08:40.059Z,3.87
2019-06-07T02:11:05.922Z,3.25
2019-06-07T02:13:31.791Z,3.40
2019-06-07T02:15:57.867Z,3.92
2019-06-07T02:18:26.082Z,4.10
2019-06-07T02:20:51.539Z,4.30
2019-06-07T02:23:17.394Z,3.90
2019-06-07T02:25:50.046Z,3.77
2019-06-07T02:28:27.663Z,5.95
2019-06-07T02:30:47.653Z,4.47
2019-06-07T02:33:06.489Z,3.90
2019-06-07T02:35:39.040Z,4.37
2019-06-07T02:38:00.213Z,8.13
2019-06-07T02:40:28.010Z,4.75
2019-06-07T02:42:53.875Z,4.70
2019-06-07T02:45:20.108Z,4.95
2019-06-07T02:47:47.077Z,4.05
2019-06-07T02:50:13.780Z,4.37
2019-06-07T02:52:40.924Z,4.58
2019-06-07T02:55:07.951Z,4.90
2019-06-07T02:57:36.958Z,4.83
2019-06-07T03:00:39.074Z,4.97
2019-06-07T03:02:40.807Z,5.55
2019-06-07T03:05:02.544Z,4.37
2019-06-07T03:07:30.623Z,4.17
2019-06-07T03:09:57.111Z,4.15
2019-06-07T03:12:23.559Z,4.90
2019-06-07T03:14:49.759Z,6.42
2019-06-07T03:17:20.283Z,4.20
2019-06-07T03:19:48.656Z,5.25
2019-06-07T03:22:14.599Z,4.03
2019-06-07T03:24:44.138Z,3.65
2019-06-07T03:27:32.633Z,4.60
2019-06-07T03:29:41.257Z,5.05
2019-06-07T03:32:06.012Z,5.22
2019-06-07T03:34:37.181Z,4.97
2019-06-07T03:36:59.631Z,5.22
2019-06-07T03:39:28.004Z,4.58
2019-06-07T03:42:05.880Z,4.80
2019-06-07T03:44:21.027Z,4.70
2019-06-07T03:46:46.971Z,4.22
2019-06-07T03:49:12.781Z,5.35
2019-06-07T03:51:40.539Z,7.20
2019-06-07T03:54:06.372Z,5.95
2019-06-07T03:56:33.774Z,5.42
2019-06-07T03:58:59.979Z,3.75
2019-06-07T04:01:28.587Z,4.53
2019-06-07T04:03:53.937Z,4.40
2019-06-07T04:06:19.783Z,5.50
2019-06-07T04:08:45.599Z,5.33
2019-06-07T04:11:11.441Z,7.10
2019-06-07T04:13:42.137Z,4.50
2019-06-07T04:16:06.426Z,5.08
2019-06-07T04:18:33.040Z,4.40
2019-06-07T04:20:59.621Z,5.90
2019-06-07T04:23:30.043Z,5.40
2019-06-07T04:25:53.295Z,5.20
2019-06-07T04:28:19.120Z,8.88
2019-06-07T04:30:45.253Z,4.58
2019-06-07T04:33:12.293Z,5.80
2019-06-07T04:35:42.518Z,4.85
2019-06-07T04:38:10.087Z,4.40
2019-06-07T04:40:39.065Z,4.97
2019-06-07T04:43:04.809Z,4.30
2019-06-07T04:45:40.247Z,4.62
2019-06-07T04:48:01.141Z,4.65
2019-06-07T04:50:31.097Z,4.50
2019-06-07T04:52:57.348Z,3.42
2019-06-07T04:55:23.204Z,4.53
2019-06-07T04:57:49.017Z,4.70
2019-06-07T05:00:48.919Z,5.53
2019-06-07T05:02:46.673Z,5.37
2019-06-07T05:05:12.609Z,9.53
2019-06-07T05:07:40.856Z,5.55
2019-06-07T05:10:06.330Z,5.65
2019-06-07T05:12:33.297Z,6.10
2019-06-07T05:14:59.942Z,5.95
2019-06-07T05:17:25.786Z,5.53
2019-06-07T05:19:51.608Z,5.97
2019-06-07T05:22:17.453Z,6.80
2019-06-07T05:24:44.020Z,5.65
2019-06-07T05:27:10.018Z,7.20
2019-06-07T05:29:38.395Z,6.15
2019-06-07T05:32:03.604Z,6.53
2019-06-07T05:34:32.255Z,8.43
2019-06-07T05:37:11.090Z,7.45
2019-06-07T05:39:25.114Z,5.00
2019-06-07T05:41:51.118Z,8.18
2019-06-07T05:44:17.059Z,4.92
2019-06-07T05:46:46.710Z,4.50
2019-06-07T05:49:10.654Z,5.80
2019-06-07T05:51:38.085Z,5.30
2019-06-07T05:54:04.250Z,6.40
2019-06-07T05:56:30.108Z,4.50
2019-06-07T05:58:55.966Z,6.47
2019-06-07T06:03:49.545Z,3.92
2019-06-07T06:06:15.896Z,4.55
2019-06-07T06:08:42.598Z,4.72
2019-06-07T06:11:09.578Z,4.87
2019-06-07T06:13:38.275Z,8.90
2019-06-07T06:16:03.243Z,4.80
2019-06-07T06:18:29.158Z,4.15
2019-06-07T06:21:19.106Z,4.20
2019-06-07T06:23:23.240Z,4.42
2019-06-07T06:25:55.897Z,4.25
2019-06-07T06:28:16.818Z,4.25
2019-06-07T06:30:47.003Z,4.85
2019-06-07T06:33:27.066Z,4.08
2019-06-07T06:35:38.166Z,3.83
2019-06-07T06:38:04.042Z,5.78
2019-06-07T06:40:29.926Z,4.83
2019-06-07T06:42:55.964Z,4.35
2019-06-07T06:45:22.009Z,4.92
2019-06-07T06:47:50.540Z,4.58
2019-06-07T06:50:16.029Z,7.83
2019-06-07T06:52:44.005Z,7.12
2019-06-07T06:55:09.920Z,6.65
2019-06-07T06:57:40.600Z,5.67
2019-06-07T07:00:08.758Z,5.33
2019-06-07T07:02:34.924Z,4.10
2019-06-07T07:05:00.966Z,4.30
2019-06-07T07:07:27.249Z,4.10
2019-06-07T07:09:58.984Z,3.85
2019-06-07T07:12:21.936Z,3.85
2019-06-07T07:14:49.742Z,4.30
2019-06-07T07:17:15.605Z,4.83
2019-06-07T07:19:42.554Z,4.20
2019-06-07T07:22:09.190Z,5.08
2019-06-07T07:24:35.020Z,3.00
2019-06-07T07:27:00.967Z,6.33
2019-06-07T07:29:26.823Z,3.25
2019-06-07T07:31:56.140Z,3.95
2019-06-07T07:34:33.306Z,3.98
2019-06-07T07:36:51.017Z,5.92
2019-06-07T07:39:17.302Z,4.75
2019-06-07T07:42:04.790Z,4.92
2019-06-07T07:44:11.179Z,5.42
2019-06-07T07:46:37.133Z,4.37
2019-06-07T07:49:02.995Z,4.40
2019-06-07T07:51:28.887Z,5.05
2019-06-07T07:54:09.372Z,4.65
2019-06-07T07:56:22.502Z,5.00
2019-06-07T07:58:51.168Z,5.83
2019-06-07T08:01:17.539Z,5.40
2019-06-07T08:03:43.463Z,4.03
2019-06-07T08:06:09.334Z,4.33
2019-06-07T08:08:35.459Z,4.08
2019-06-07T08:11:02.129Z,3.95
2019-06-07T08:13:28.540Z,7.50
2019-06-07T08:15:59.232Z,12.07
2019-06-07T08:18:22.325Z,6.83
2019-06-07T08:21:08.667Z,5.22
2019-06-07T08:23:16.031Z,5.62
2019-06-07T08:25:42.538Z,5.55
2019-06-07T08:28:10.612Z,8.88
2019-06-07T08:31:00.083Z,6.67
2019-06-07T08:33:24.575Z,9.10
2019-06-07T08:36:03.895Z,8.78
2019-06-07T08:38:26.736Z,5.55
2019-06-07T08:40:27.627Z,7.30
2019-06-07T08:43:11.359Z,6.53
2019-06-07T08:45:21.731Z,8.10
2019-06-07T08:47:47.653Z,5.00
2019-06-07T08:50:14.217Z,6.85
2019-06-07T08:52:40.170Z,5.40
2019-06-07T08:55:06.853Z,8.10
2019-06-07T08:57:32.829Z,10.70
2019-06-07T09:00:06.286Z,4.60
2019-06-07T09:02:26.534Z,7.10
2019-06-07T09:04:54.687Z,6.72
2019-06-07T09:07:23.191Z,6.28
2019-06-07T09:09:48.562Z,10.55
2019-06-07T09:12:16.446Z,8.05
2019-06-07T09:14:59.747Z,8.80
2019-06-07T09:17:12.358Z,6.17
2019-06-07T09:19:38.095Z,5.28
2019-06-07T09:22:10.659Z,4.20
2019-06-07T09:24:31.719Z,5.75
2019-06-07T09:26:58.297Z,6.90
2019-06-07T09:29:25.451Z,6.08
2019-06-07T09:31:53.615Z,5.40
2019-06-07T09:34:19.765Z,5.33
2019-06-07T09:36:45.776Z,5.62
2019-06-07T09:39:12.703Z,7.53
2019-06-07T09:41:47.611Z,4.65
2019-06-07T09:44:21.285Z,6.47
2019-06-07T09:46:34.681Z,4.72
2019-06-07T09:49:20.968Z,8.90
2019-06-07T09:51:31.262Z,5.03
2019-06-07T09:53:58.542Z,4.85
2019-06-07T09:56:25.134Z,4.72
2019-06-07T09:58:53.281Z,7.33
2019-06-07T10:01:19.214Z,12.00
2019-06-07T10:03:45.284Z,4.75
2019-06-07T10:06:13.587Z,9.05
2019-06-07T10:09:56.876Z,7.33
2019-06-07T10:11:09.151Z,10.10
2019-06-07T10:13:35.089Z,11.60
2019-06-07T10:16:01.202Z,7.17
2019-06-07T10:18:27.137Z,5.35
2019-06-07T10:20:55.081Z,7.62
2019-06-07T10:23:21.028Z,8.73
2019-06-07T10:25:46.992Z,8.65
2019-06-07T10:28:12.954Z,8.83
2019-06-07T10:30:40.087Z,6.65
2019-06-07T10:33:06.882Z,5.58
2019-06-07T10:35:33.044Z,7.60
2019-06-07T10:38:00.231Z,8.28
2019-06-07T10:40:26.640Z,5.75
2019-06-07T10:42:52.864Z,5.05
2019-06-07T10:45:18.882Z,6.47
2019-06-07T10:47:44.890Z,7.42
2019-06-07T10:50:12.251Z,9.48
2019-06-07T10:52:38.243Z,6.33
2019-06-07T10:55:04.807Z,7.00
2019-06-07T10:57:30.935Z,13.72
2019-06-07T10:59:56.866Z,6.60
2019-06-07T11:02:22.737Z,10.35
2019-06-07T11:04:49.074Z,7.00
2019-06-07T11:07:15.291Z,9.05
2019-06-07T11:09:41.169Z,6.90
2019-06-07T11:12:08.300Z,7.42
2019-06-07T11:14:34.342Z,8.40
2019-06-07T11:17:00.330Z,6.85
2019-06-07T11:19:26.269Z,7.05
2019-06-07T11:21:52.099Z,10.20
2019-06-07T11:24:23.688Z,5.28
2019-06-07T11:26:45.803Z,10.30
2019-06-07T11:29:12.797Z,10.85
2019-06-07T11:31:38.761Z,11.93
2019-06-07T11:34:04.607Z,7.08
2019-06-07T11:36:30.544Z,9.45
2019-06-07T11:38:56.485Z,12.73
2019-06-07T11:41:22.395Z,7.17
2019-06-07T11:43:48.334Z,5.85
2019-06-07T11:46:17.273Z,11.50
2019-06-07T11:48:43.327Z,5.95
2019-06-07T11:51:12.673Z,10.58
2019-06-07T11:53:38.615Z,5.33
2019-06-07T11:56:04.439Z,6.85
2019-06-07T11:58:33.097Z,6.90
2019-06-07T12:00:59.056Z,6.00
2019-06-07T12:03:25.068Z,8.68
2019-06-07T12:05:52.869Z,7.42
2019-06-07T12:08:18.805Z,8.80
2019-06-07T12:10:44.789Z,9.03
2019-06-07T12:13:10.750Z,9.00
2019-06-07T12:15:36.812Z,9.48
2019-06-07T12:18:02.897Z,9.55
2019-06-07T12:20:28.844Z,9.48
2019-06-07T12:22:54.770Z,7.90
2019-06-07T12:25:24.808Z,7.60
2019-06-07T12:27:48.425Z,10.70
2019-06-07T12:30:22.444Z,7.12
2019-06-07T12:32:47.804Z,17.30
2019-06-07T12:35:13.989Z,7.53
2019-06-07T12:37:44.255Z,16.27
2019-06-07T12:40:08.705Z,10.25
2019-06-07T12:42:35.165Z,7.03
2019-06-07T12:45:03.487Z,6.08
2019-06-07T12:47:29.443Z,6.47
2019-06-07T12:49:55.361Z,10.82
2019-06-07T12:52:22.995Z,6.25
2019-06-07T12:54:48.920Z,4.67
2019-06-07T12:57:17.932Z,12.80
2019-06-07T12:59:45.608Z,6.33
2019-06-07T13:02:11.597Z,5.62
2019-06-07T13:04:37.551Z,4.80
2019-06-07T13:07:06.100Z,5.65
2019-06-07T13:09:36.048Z,12.18
2019-06-07T13:12:01.227Z,5.92
2019-06-07T13:14:34.450Z,9.93
2019-06-07T13:17:00.809Z,8.05
2019-06-07T13:19:26.781Z,7.15
2019-06-07T13:21:52.719Z,6.50
2019-06-07T13:24:20.923Z,6.62
2019-06-07T13:26:46.414Z,8.23
2019-06-07T13:29:12.395Z,6.37
2019-06-07T13:31:38.328Z,6.08
2019-06-07T13:34:04.316Z,6.15
2019-06-07T13:36:30.466Z,7.15
2019-06-07T13:38:56.464Z,6.97
2019-06-07T13:41:36.788Z,5.62
2019-06-07T13:43:51.695Z,7.35
2019-06-07T13:46:18.914Z,5.87
2019-06-07T13:48:44.989Z,8.63
2019-06-07T13:51:11.013Z,8.08
2019-06-07T13:53:36.968Z,5.90
2019-06-07T13:56:02.854Z,6.05
2019-06-07T13:58:28.850Z,6.08
2019-06-07T14:00:54.821Z,8.13
2019-06-07T14:03:24.237Z,9.60
2019-06-07T14:05:48.973Z,6.35
2019-06-07T14:08:14.973Z,8.33
2019-06-07T14:10:40.949Z,5.47
2019-06-07T14:13:08.532Z,8.00
2019-06-07T14:15:34.591Z,8.93
2019-06-07T14:18:00.573Z,7.47
2019-06-07T14:20:30.940Z,8.10
2019-06-07T14:22:54.745Z,8.30
2019-06-07T14:25:20.996Z,6.08
2019-06-07T14:27:47.014Z,13.62
2019-06-07T14:30:14.017Z,11.18
2019-06-07T14:32:40.097Z,9.08
2019-06-07T14:35:06.823Z,7.28
2019-06-07T14:37:33.135Z,8.35
2019-06-07T14:39:59.312Z,15.50
2019-06-07T14:42:25.712Z,5.28
2019-06-07T14:44:51.633Z,12.25
2019-06-07T14:47:17.512Z,9.30
2019-06-07T14:49:43.451Z,9.13
2019-06-07T14:52:09.457Z,11.48
2019-06-07T14:54:38.831Z,7.58
2019-06-07T14:57:04.609Z,9.45
2019-06-07T14:59:30.689Z,5.00
2019-06-07T15:01:56.755Z,6.22
2019-06-07T15:04:22.800Z,4.95
2019-06-07T15:06:48.877Z,7.42
2019-06-07T15:09:15.137Z,10.10
2019-06-07T15:11:41.146Z,6.03
2019-06-07T15:14:07.179Z,10.05
2019-06-07T15:16:33.834Z,7.62
2019-06-07T15:19:00.300Z,9.75
2019-06-07T15:21:26.772Z,12.63
2019-06-07T15:23:53.730Z,8.00
2019-06-07T15:26:21.089Z,5.95
2019-06-07T15:28:47.107Z,6.42
2019-06-07T15:31:13.176Z,8.35
2019-06-07T15:33:39.264Z,6.22
2019-06-07T15:36:05.347Z,8.20
2019-06-07T15:41:59.462Z,8.30
2019-06-07T15:44:25.655Z,12.13
2019-06-07T15:46:51.622Z,13.62
2019-06-07T15:49:17.989Z,9.58
2019-06-07T15:51:44.031Z,7.22
2019-06-07T15:54:12.149Z,9.85
2019-06-07T15:56:39.084Z,7.55
2019-06-07T15:59:05.275Z,9.13
2019-06-07T16:01:31.301Z,5.83
2019-06-07T16:03:59.008Z,4.65
2019-06-07T16:06:25.329Z,9.65
2019-06-07T16:08:52.111Z,6.87
2019-06-07T16:11:18.085Z,8.68
2019-06-07T16:13:44.394Z,6.70
2019-06-07T16:16:10.664Z,4.90
2019-06-07T16:18:37.654Z,7.10
2019-06-07T16:21:03.904Z,8.30
2019-06-07T16:23:29.755Z,9.18
2019-06-07T16:25:55.729Z,5.62
2019-06-07T16:28:21.679Z,6.60
2019-06-07T16:30:47.619Z,5.55
2019-06-07T16:33:13.637Z,6.00
2019-06-07T16:35:39.520Z,8.33
2019-06-07T16:38:05.497Z,5.80
2019-06-07T16:40:31.463Z,6.17
2019-06-07T16:42:57.366Z,5.17
2019-06-07T16:45:23.842Z,6.55
2019-06-07T16:47:49.929Z,12.00
2019-06-07T16:50:16.340Z,4.90
2019-06-07T16:52:44.014Z,7.92
2019-06-07T16:55:10.399Z,7.05
2019-06-07T16:57:36.659Z,6.50
2019-06-07T17:00:09.461Z,9.55
2019-06-07T17:02:35.424Z,7.58
2019-06-07T17:05:01.371Z,8.85
2019-06-07T17:07:27.612Z,6.90
2019-06-07T17:09:53.482Z,7.22
2019-06-07T17:12:19.445Z,11.12
2019-06-07T17:14:46.617Z,8.55
2019-06-07T17:17:12.578Z,12.33
2019-06-07T17:19:38.840Z,7.72
2019-06-07T17:22:04.919Z,9.38
2019-06-07T17:24:30.793Z,9.30
2019-06-07T17:26:56.738Z,7.65
2019-06-07T17:29:22.718Z,13.18
2019-06-07T17:31:48.731Z,9.13
2019-06-07T17:34:14.679Z,8.43
2019-06-07T17:36:40.560Z,14.83
2019-06-07T17:39:07.138Z,14.23
2019-06-07T17:41:47.791Z,17.05
2019-06-07T17:44:00.850Z,15.68
2019-06-07T17:46:26.858Z,17.25
2019-06-07T17:48:52.817Z,23.55
2019-06-07T17:51:18.960Z,7.53
2019-06-07T17:53:45.863Z,5.95
2019-06-07T17:56:11.948Z,11.60
2019-06-07T17:58:38.106Z,7.58
2019-06-07T18:01:04.225Z,7.67
2019-06-07T18:03:30.384Z,9.33
2019-06-07T18:05:56.757Z,9.80
2019-06-07T18:08:23.120Z,10.25
2019-06-07T18:10:50.044Z,12.15
2019-06-07T18:13:16.048Z,12.25
2019-06-07T18:15:44.380Z,10.78
2019-06-07T18:18:10.852Z,14.20
2019-06-07T18:20:36.808Z,13.85
2019-06-07T18:23:04.070Z,11.75
2019-06-07T18:25:29.904Z,7.78
2019-06-07T18:27:55.810Z,8.50
2019-06-07T18:30:21.922Z,8.45
2019-06-07T18:32:48.764Z,8.93
2019-06-07T18:35:14.690Z,10.82
2019-06-07T18:37:40.572Z,11.50
2019-06-07T18:40:06.710Z,9.53
2019-06-07T18:42:32.554Z,10.28
2019-06-07T18:44:59.419Z,8.15
2019-06-07T18:47:25.389Z,9.35
2019-06-07T18:49:51.537Z,9.33
2019-06-07T18:52:19.394Z,9.60
2019-06-07T18:54:45.230Z,8.23
2019-06-07T18:57:12.427Z,8.75
2019-06-07T18:59:38.522Z,8.83
2019-06-07T19:02:04.483Z,10.13
2019-06-07T19:04:30.757Z,10.80
2019-06-07T19:06:56.594Z,10.08
2019-06-07T19:09:22.426Z,10.15
2019-06-07T19:11:48.722Z,10.65
2019-06-07T19:14:14.633Z,10.58
2019-06-07T19:16:40.468Z,9.25
2019-06-07T19:19:06.420Z,10.93
2019-06-07T19:21:32.554Z,9.83
2019-06-07T19:23:58.446Z,12.93
2019-06-07T19:26:24.288Z,10.08
2019-06-07T19:28:50.578Z,10.38
2019-06-07T19:31:16.543Z,10.93
2019-06-07T19:33:49.187Z,10.58
2019-06-07T19:36:10.405Z,13.50
2019-06-07T19:38:36.239Z,14.33
2019-06-07T19:41:16.508Z,14.07
2019-06-07T19:43:29.897Z,13.83
2019-06-07T19:45:56.171Z,11.80
2019-06-07T19:48:22.207Z,11.75
2019-06-07T19:50:48.044Z,11.03
2019-06-07T19:53:13.995Z,11.70
2019-06-07T19:55:39.894Z,13.13
2019-06-07T19:58:05.798Z,11.30
2019-06-07T20:00:35.723Z,11.75
2019-06-07T20:03:02.278Z,11.78
2019-06-07T20:05:29.340Z,12.05
2019-06-07T20:07:56.363Z,9.95
2019-06-07T20:10:22.503Z,11.40
2019-06-07T20:12:48.354Z,11.03
2019-06-07T20:15:28.393Z,11.73
2019-06-07T20:17:44.071Z,12.33
2019-06-07T20:20:10.395Z,12.15
2019-06-07T20:22:36.249Z,10.65
2019-06-07T20:25:05.047Z,12.28
2019-06-07T20:27:31.036Z,12.68
2019-06-07T20:29:57.973Z,11.53
2019-06-07T20:32:24.027Z,11.85
2019-06-07T20:34:49.928Z,12.53
2019-06-07T20:37:15.794Z,13.48
2019-06-07T20:39:41.621Z,11.48
2019-06-07T20:42:07.876Z,12.45
2019-06-07T20:44:33.919Z,11.83
2019-06-07T20:47:00.000Z,11.90
2019-06-07T20:49:26.043Z,11.48
2019-06-07T20:51:51.923Z,11.65
2019-06-07T20:54:17.751Z,13.30
2019-06-07T20:56:43.731Z,12.50
2019-06-07T20:59:09.631Z,12.65
2019-06-07T21:01:35.477Z,10.65
2019-06-07T21:04:01.378Z,13.25
2019-06-07T21:06:27.364Z,11.05
2019-06-07T21:08:53.199Z,11.48
2019-06-07T21:11:19.054Z,11.55
2019-06-07T21:13:44.959Z,11.93
2019-06-07T21:16:10.792Z,11.00
2019-06-07T21:18:36.728Z,9.98
2019-06-07T21:21:02.548Z,11.57
2019-06-07T21:23:28.461Z,11.78
2019-06-07T21:25:54.285Z,12.35
2019-06-07T21:28:20.132Z,12.33
2019-06-07T21:30:46.038Z,13.75
2019-06-07T21:33:12.041Z,12.30
2019-06-07T21:35:38.434Z,14.45
2019-06-07T21:38:05.968Z,11.55
2019-06-07T21:40:32.031Z,11.12
2019-06-07T21:42:57.964Z,11.43
2019-06-07T21:45:23.824Z,12.07
2019-06-07T21:47:49.719Z,11.15
2019-06-07T21:50:15.745Z,13.62
2019-06-07T21:52:41.938Z,11.80
2019-06-07T21:55:09.064Z,12.18
2019-06-07T21:57:36.282Z,11.65
2019-06-07T22:00:07.155Z,11.03
2019-06-07T22:02:33.139Z,10.48
2019-06-07T22:04:58.966Z,9.85
2019-06-07T22:07:26.111Z,11.75
2019-06-07T22:09:51.940Z,10.48
2019-06-07T22:12:18.846Z,10.85
2019-06-07T22:14:44.674Z,10.45
2019-06-07T22:17:10.513Z,11.68
2019-06-07T22:19:36.334Z,10.25
2019-06-07T22:22:03.308Z,10.70
2019-06-07T22:24:29.992Z,10.50
2019-06-07T22:26:55.844Z,10.55
2019-06-07T22:29:21.702Z,11.28
2019-06-07T22:31:47.543Z,11.68
2019-06-07T22:34:13.392Z,11.75
2019-06-07T22:36:39.212Z,10.75
2019-06-07T22:39:05.561Z,13.13
2019-06-07T22:41:31.530Z,10.82
2019-06-07T22:43:57.447Z,10.93
2019-06-07T22:46:36.247Z,10.60
2019-06-07T22:48:51.028Z,10.90
2019-06-07T22:51:18.309Z,12.73
2019-06-07T22:53:44.349Z,11.25
2019-06-07T22:56:12.190Z,13.38
2019-06-07T22:58:38.138Z,11.65
2019-06-07T23:01:03.988Z,11.68
2019-06-07T23:03:30.246Z,10.30
2019-06-07T23:05:56.123Z,10.75
2019-06-07T23:08:22.060Z,11.30
2019-06-07T23:10:47.953Z,11.00
2019-06-07T23:13:13.827Z,11.50
2019-06-07T23:15:39.682Z,15.05
2019-06-07T23:18:05.979Z,10.93
2019-06-07T23:20:31.816Z,11.97
2019-06-07T23:22:57.666Z,12.47
2019-06-07T23:25:24.704Z,11.33
2019-06-07T23:27:50.834Z,11.83
2019-06-07T23:30:16.879Z,10.72
2019-06-07T23:32:42.733Z,10.85
2019-06-07T23:35:10.610Z,10.95
2019-06-07T23:37:36.614Z,10.80
2019-06-07T23:40:04.073Z,12.47
2019-06-07T23:42:29.915Z,10.72
2019-06-07T23:45:01.889Z,12.58
2019-06-07T23:47:27.839Z,11.18
2019-06-07T23:49:53.679Z,12.50
2019-06-07T23:52:19.743Z,17.27
2019-06-07T23:54:45.666Z,12.15
2019-06-07T23:57:12.127Z,12.07
2019-06-07T23:59:38.124Z,11.60
